createdAt,value
2017-08-26T00:02:20.754Z,85.12
2017-08-26T00:04:50.309Z,84.21
2017-08-26T00:07:19.774Z,83.17
2017-08-26T00:09:49.313Z,83.91
2017-08-26T00:12:19.186Z,84.83
2017-08-26T00:14:49.626Z,85.70
2017-08-26T00:17:19.273Z,83.87
2017-08-26T00:19:48.771Z,83.43
2017-08-26T00:22:18.349Z,83.56
2017-08-26T00:24:47.857Z,83.57
2017-08-26T00:27:18.467Z,83.33
2017-08-26T00:29:48.522Z,83.52
2017-08-26T00:32:18.093Z,83.23
2017-08-26T00:34:47.534Z,84.20
2017-08-26T00:37:17.077Z,83.77
2017-08-26T00:39:46.657Z,82.81
2017-08-26T00:42:16.842Z,83.70
2017-08-26T00:44:46.597Z,83.32
2017-08-26T00:47:16.128Z,82.96
2017-08-26T00:49:45.761Z,82.92
2017-08-26T00:52:15.381Z,82.91
2017-08-26T00:54:44.865Z,83.98
2017-08-26T00:57:14.966Z,83.83
2017-08-26T00:59:45.288Z,83.21
2017-08-26T01:02:14.901Z,83.72
2017-08-26T01:04:44.274Z,83.82
2017-08-26T01:07:18.600Z,83.67
2017-08-26T01:09:48.027Z,83.18
2017-08-26T01:12:18.417Z,83.11
2017-08-26T01:14:48.351Z,83.33
2017-08-26T01:17:17.963Z,83.76
2017-08-26T01:19:47.355Z,84.77
2017-08-26T01:22:16.771Z,84.60
2017-08-26T01:24:46.200Z,84.64
2017-08-26T01:27:15.625Z,84.68
2017-08-26T01:29:45.479Z,84.41
2017-08-26T01:32:16.981Z,84.21
2017-08-26T01:34:46.417Z,83.46
2017-08-26T01:37:15.864Z,84.85
2017-08-26T01:39:45.281Z,85.76
2017-08-26T01:42:15.664Z,84.54
2017-08-26T01:44:45.137Z,84.39
2017-08-26T01:47:14.625Z,85.62
2017-08-26T01:49:44.022Z,85.29
2017-08-26T01:52:13.564Z,84.51
2017-08-26T01:54:43.113Z,84.16
2017-08-26T01:57:12.628Z,83.40
2017-08-26T01:59:42.001Z,83.38
2017-08-26T02:02:11.609Z,83.89
2017-08-26T02:04:41.071Z,83.66
2017-08-26T02:07:10.557Z,83.75
2017-08-26T02:09:40.104Z,84.46
2017-08-26T02:12:09.705Z,84.39
2017-08-26T02:14:39.174Z,84.73
2017-08-26T02:17:09.168Z,84.01
2017-08-26T02:19:38.657Z,83.79
2017-08-26T02:22:08.105Z,83.33
2017-08-26T02:24:38.943Z,84.27
2017-08-26T02:27:08.739Z,85.04
2017-08-26T02:29:38.196Z,83.47
2017-08-26T02:32:07.722Z,83.81
2017-08-26T02:34:37.177Z,84.60
2017-08-26T02:37:06.650Z,84.32
2017-08-26T02:39:36.193Z,84.25
2017-08-26T02:42:05.900Z,83.84
2017-08-26T02:44:35.337Z,83.93
2017-08-26T02:47:04.859Z,83.56
2017-08-26T02:49:34.301Z,83.72
2017-08-26T02:52:03.848Z,85.43
2017-08-26T02:54:33.232Z,84.49
2017-08-26T02:57:02.958Z,84.24
2017-08-26T02:59:32.376Z,83.90
2017-08-26T03:02:01.852Z,83.30
2017-08-26T03:04:31.266Z,83.70
2017-08-26T03:07:00.698Z,85.52
2017-08-26T03:09:30.177Z,85.76
2017-08-26T03:11:59.678Z,84.48
2017-08-26T03:14:29.174Z,85.12
2017-08-26T03:16:58.981Z,85.98
2017-08-26T03:19:29.444Z,84.21
2017-08-26T03:21:59.134Z,84.23
2017-08-26T03:24:30.496Z,84.54
2017-08-26T03:26:59.899Z,84.15
2017-08-26T03:29:29.284Z,84.10
2017-08-26T03:31:58.806Z,84.27
2017-08-26T03:34:28.215Z,83.92
2017-08-26T03:37:00.231Z,84.59
2017-08-26T03:39:29.789Z,83.90
2017-08-26T03:41:59.191Z,84.75
2017-08-26T03:44:31.380Z,85.84
2017-08-26T03:47:03.064Z,84.67
2017-08-26T03:49:32.577Z,84.07
2017-08-26T03:52:02.076Z,84.34
2017-08-26T03:54:31.626Z,84.35
2017-08-26T03:57:01.321Z,85.92
2017-08-26T03:59:31.198Z,84.93
2017-08-26T04:04:57.575Z,85.57
2017-08-26T04:07:27.889Z,86.12
2017-08-26T04:09:57.628Z,85.60
2017-08-26T04:12:29.130Z,85.38
2017-08-26T04:14:59.414Z,85.19
2017-08-26T04:17:29.076Z,84.55
2017-08-26T04:19:58.777Z,84.66
2017-08-26T04:22:31.371Z,86.04
2017-08-26T04:25:01.678Z,86.04
2017-08-26T04:27:31.483Z,86.44
2017-08-26T04:30:01.184Z,85.69
2017-08-26T04:32:32.290Z,85.71
2017-08-26T04:35:02.657Z,85.16
2017-08-26T04:37:32.340Z,85.09
2017-08-26T04:40:02.398Z,84.84
2017-08-26T04:42:32.929Z,84.49
2017-08-26T04:45:02.842Z,84.94
2017-08-26T04:47:32.689Z,84.82
2017-08-26T04:50:12.787Z,85.11
2017-08-26T04:52:52.938Z,85.64
2017-08-26T04:55:27.459Z,85.92
2017-08-26T04:57:58.392Z,85.65
2017-08-26T05:00:28.611Z,86.23
2017-08-26T05:02:58.171Z,86.03
2017-08-26T05:05:27.897Z,85.58
2017-08-26T05:07:57.470Z,86.17
2017-08-26T05:10:27.073Z,85.42
2017-08-26T05:12:56.633Z,85.33
2017-08-26T05:15:27.546Z,85.66
2017-08-26T05:18:00.229Z,85.57
2017-08-26T05:20:30.149Z,85.38
2017-08-26T05:22:59.752Z,86.91
2017-08-26T05:25:29.926Z,87.00
2017-08-26T05:28:00.250Z,85.65
2017-08-26T05:30:30.796Z,86.29
2017-08-26T05:33:02.301Z,85.74
2017-08-26T05:35:32.291Z,86.06
2017-08-26T05:38:01.853Z,86.23
2017-08-26T05:40:31.980Z,86.20
2017-08-26T05:43:01.823Z,86.00
2017-08-26T05:45:33.591Z,85.86
2017-08-26T05:48:07.555Z,85.71
2017-08-26T05:50:42.046Z,86.04
2017-08-26T05:53:14.649Z,85.22
2017-08-26T05:55:45.677Z,85.31
2017-08-26T05:58:22.469Z,84.83
2017-08-26T06:00:53.735Z,85.19
2017-08-26T06:03:24.930Z,82.48
2017-08-26T06:05:55.006Z,81.65
2017-08-26T06:08:27.802Z,81.09
2017-08-26T06:10:57.690Z,78.93
2017-08-26T06:13:30.329Z,77.14
2017-08-26T06:16:01.446Z,77.70
2017-08-26T06:18:42.259Z,78.49
2017-08-26T06:21:16.051Z,77.97
2017-08-26T06:23:54.166Z,78.11
